Time;durP1;ratioP1;P1;durP2;ratioP2;P2;SDS_P1;SDS_P2;PMS_P1;PMS_P2;Temp;Humidity;BMP_temperature;BMP_pressure;BME280_temperature;BME280_humidity;BME280_pressure;Samples;Min_cycle;Max_cycle;Signal;HPM_P1;HPM_P2
2022/10/28 00:00:49;;;;;;;8.80;6.50;;;23.60;60.60;;;;;;5010129;28;20117;-66
2022/10/28 00:03:15;;;;;;;9.10;6.43;;;23.60;60.10;;;;;;5016397;28;20034;-66
2022/10/28 00:05:40;;;;;;;8.65;6.25;;;23.60;60.10;;;;;;5012421;28;20452;-65
2022/10/28 00:08:06;;;;;;;8.35;6.00;;;23.60;60.10;;;;;;5017109;28;20054;-67
2022/10/28 00:10:32;;;;;;;9.70;6.47;;;23.60;60.10;;;;;;5021581;28;20091;-66
2022/10/28 00:12:58;;;;;;;8.70;6.55;;;23.50;60.10;;;;;;5024800;28;20025;-66
2022/10/28 00:15:24;;;;;;;9.75;6.45;;;23.50;60.10;;;;;;5010299;28;20105;-66
2022/10/28 00:17:49;;;;;;;8.65;6.22;;;23.50;60.10;;;;;;5016180;28;20022;-67
2022/10/28 00:20:15;;;;;;;10.25;7.10;;;23.50;60.10;;;;;;5014118;28;20079;-66
2022/10/28 00:22:41;;;;;;;8.20;6.07;;;23.50;60.10;;;;;;5016825;28;20040;-66
2022/10/28 00:25:07;;;;;;;8.95;6.28;;;23.50;60.10;;;;;;5012347;28;20026;-66
2022/10/28 00:27:33;;;;;;;8.70;5.97;;;23.50;60.10;;;;;;5011052;28;20032;-66
2022/10/28 00:29:59;;;;;;;8.95;6.00;;;23.50;60.20;;;;;;5016091;28;20361;-66
2022/10/28 00:32:27;;;;;;;8.40;5.88;;;23.50;60.20;;;;;;5015322;28;20132;-66
2022/10/28 00:34:52;;;;;;;9.18;6.22;;;23.50;60.20;;;;;;5017789;28;20041;-65
2022/10/28 00:37:18;;;;;;;8.95;6.18;;;23.40;60.10;;;;;;5011407;28;20022;-66
2022/10/28 00:39:43;;;;;;;8.75;5.75;;;23.40;60.10;;;;;;5002301;28;20113;-65
2022/10/28 00:42:10;;;;;;;8.85;5.90;;;23.40;60.10;;;;;;5007863;28;20369;-66
2022/10/28 00:44:58;;;;;;;8.10;5.72;;;23.40;60.10;;;;;;5008014;28;20026;-66
2022/10/28 00:47:54;;;;;;;6.88;5.32;;;23.40;60.10;;;;;;5008742;28;20018;-65
2022/10/28 00:50:38;;;;;;;8.02;5.82;;;23.40;60.10;;;;;;5000018;28;20116;-66
2022/10/28 00:53:12;;;;;;;8.80;5.90;;;23.40;60.10;;;;;;5019301;28;20042;-65
2022/10/28 00:55:38;;;;;;;7.55;5.78;;;23.40;60.20;;;;;;5018618;28;20542;-66
2022/10/28 00:58:06;;;;;;;8.15;5.70;;;23.40;60.20;;;;;;5022462;28;20128;-66
2022/10/28 01:00:32;;;;;;;8.32;6.20;;;23.40;60.10;;;;;;5018041;28;20036;-66
2022/10/28 01:02:58;;;;;;;8.35;5.38;;;23.40;60.10;;;;;;5008973;28;20121;-66
2022/10/28 01:05:27;;;;;;;7.32;5.15;;;23.40;60.20;;;;;;5012845;28;20023;-66
2022/10/28 01:08:00;;;;;;;7.32;5.63;;;23.30;60.10;;;;;;5019889;28;20049;-65
2022/10/28 01:10:48;;;;;;;8.25;5.70;;;23.30;60.10;;;;;;5022243;28;20022;-66
2022/10/28 01:13:26;;;;;;;8.53;5.50;;;23.30;60.10;;;;;;5004694;28;20073;-65
2022/10/28 01:16:02;;;;;;;8.32;5.50;;;23.30;60.10;;;;;;5009200;28;20357;-66
2022/10/28 01:19:02;;;;;;;8.93;5.88;;;23.30;60.20;;;;;;5011515;28;20033;-65
2022/10/28 01:21:40;;;;;;;8.00;5.97;;;23.30;60.20;;;;;;4999962;28;20053;-66
2022/10/28 01:24:21;;;;;;;8.18;5.60;;;23.30;60.10;;;;;;5014560;28;20033;-67
2022/10/28 01:27:02;;;;;;;8.48;5.97;;;23.30;60.10;;;;;;5008702;28;20065;-66
2022/10/28 01:29:46;;;;;;;7.05;5.53;;;23.30;60.10;;;;;;5009535;28;20485;-66
2022/10/28 01:32:39;;;;;;;8.85;5.65;;;23.20;60.10;;;;;;5016065;28;20128;-66
2022/10/28 01:35:15;;;;;;;6.93;5.15;;;23.30;60.10;;;;;;5014997;28;20403;-66
2022/10/28 01:37:51;;;;;;;7.65;5.32;;;23.20;60.10;;;;;;5010382;28;20477;-66
2022/10/28 01:40:34;;;;;;;7.43;5.07;;;23.20;60.10;;;;;;5009360;28;20133;-65
2022/10/28 01:43:25;;;;;;;7.80;5.30;;;23.20;60.10;;;;;;5023380;28;20052;-67
2022/10/28 01:45:53;;;;;;;6.38;5.05;;;23.20;60.10;;;;;;5024554;28;20026;-66
2022/10/28 01:48:24;;;;;;;6.30;4.90;;;23.20;60.10;;;;;;5021597;28;20022;-66
2022/10/28 01:50:58;;;;;;;6.95;4.95;;;23.20;60.00;;;;;;5016557;28;20040;-67
2022/10/28 01:53:30;;;;;;;7.53;5.10;;;23.20;60.00;;;;;;5017790;28;20434;-67
2022/10/28 01:56:01;;;;;;;7.03;5.00;;;23.20;60.00;;;;;;5019597;28;20056;-65
2022/10/28 01:58:30;;;;;;;5.68;4.55;;;23.20;60.10;;;;;;5032014;28;20113;-69
2022/10/28 02:00:59;;;;;;;7.65;5.10;;;23.20;60.10;;;;;;5012898;28;20446;-66
2022/10/28 02:03:27;;;;;;;6.07;4.55;;;23.20;60.10;;;;;;5012536;28;20050;-67
2022/10/28 02:05:59;;;;;;;6.57;4.85;;;23.20;60.10;;;;;;5013257;28;20040;-66
2022/10/28 02:08:41;;;;;;;7.60;5.22;;;23.20;60.10;;;;;;5015692;28;20480;-66
2022/10/28 02:11:20;;;;;;;6.75;4.63;;;23.20;60.10;;;;;;5016270;28;20025;-67
2022/10/28 02:14:29;;;;;;;7.07;4.45;;;23.20;60.10;;;;;;5015587;28;20477;-66
2022/10/28 02:17:29;;;;;;;8.02;4.78;;;23.20;60.10;;;;;;5016902;28;20060;-66
2022/10/28 02:20:18;;;;;;;7.00;4.75;;;23.20;60.10;;;;;;5015185;28;20132;-67
2022/10/28 02:23:00;;;;;;;6.63;4.65;;;23.20;60.10;;;;;;5019356;28;20061;-66
2022/10/28 02:25:34;;;;;;;6.18;4.43;;;23.20;60.10;;;;;;5016022;28;20030;-66
2022/10/28 02:28:07;;;;;;;6.80;5.10;;;23.10;60.00;;;;;;5015227;28;20116;-66
2022/10/28 02:30:43;;;;;;;7.18;4.63;;;23.10;60.10;;;;;;5008859;28;20559;-66
2022/10/28 02:33:13;;;;;;;6.40;4.60;;;23.10;60.10;;;;;;5023994;28;20064;-66
2022/10/28 02:36:13;;;;;;;5.65;4.50;;;23.10;60.10;;;;;;5006152;28;20432;-66
2022/10/28 02:38:43;;;;;;;5.70;4.35;;;23.10;60.10;;;;;;5008393;28;20503;-67
2022/10/28 02:41:17;;;;;;;5.68;4.30;;;23.10;60.00;;;;;;5018894;28;20113;-65
2022/10/28 02:43:46;;;;;;;6.25;4.32;;;23.10;60.00;;;;;;5019571;28;20059;-65
2022/10/28 02:46:13;;;;;;;6.55;4.35;;;23.10;60.00;;;;;;5016589;28;20101;-66
2022/10/28 02:48:44;;;;;;;6.18;4.15;;;23.10;60.10;;;;;;5011646;28;20038;-67
2022/10/28 02:51:15;;;;;;;5.70;4.20;;;23.10;60.10;;;;;;5018763;28;20025;-65
2022/10/28 02:53:50;;;;;;;5.78;4.20;;;23.00;60.00;;;;;;5019165;28;20049;-67
2022/10/28 02:56:17;;;;;;;5.60;3.67;;;23.10;60.10;;;;;;5018680;28;20048;-66
2022/10/28 02:58:44;;;;;;;6.28;4.50;;;23.00;60.00;;;;;;5010613;28;20114;-66
2022/10/28 03:01:09;;;;;;;5.15;3.83;;;23.10;60.10;;;;;;5016373;28;20034;-66
2022/10/28 03:03:35;;;;;;;6.60;4.40;;;23.00;60.00;;;;;;5019936;28;20035;-65
2022/10/28 03:06:01;;;;;;;6.03;4.38;;;23.00;60.00;;;;;;5013109;28;20085;-65
2022/10/28 03:08:26;;;;;;;6.07;3.97;;;23.00;60.00;;;;;;5012018;28;20060;-66
2022/10/28 03:10:52;;;;;;;5.70;3.75;;;23.00;60.00;;;;;;5003145;28;20106;-66
2022/10/28 03:13:17;;;;;;;5.90;4.03;;;23.00;60.00;;;;;;5002660;28;20037;-66
2022/10/28 03:15:43;;;;;;;5.47;4.00;;;23.00;60.00;;;;;;5010000;28;20038;-67
2022/10/28 03:18:08;;;;;;;4.88;3.60;;;23.00;60.00;;;;;;5013317;28;20048;-66
2022/10/28 03:20:34;;;;;;;4.97;3.70;;;23.00;60.00;;;;;;5009886;28;20037;-66
2022/10/28 03:23:00;;;;;;;5.60;4.05;;;23.00;60.00;;;;;;5014519;28;20033;-66
2022/10/28 03:25:25;;;;;;;5.57;3.97;;;23.00;60.50;;;;;;5011420;28;20030;-66
2022/10/28 03:27:51;;;;;;;5.55;4.00;;;23.00;60.00;;;;;;5019999;28;20030;-67
2022/10/28 03:30:17;;;;;;;4.88;3.80;;;23.00;60.00;;;;;;5022039;28;20033;-66
2022/10/28 03:32:43;;;;;;;7.38;3.85;;;23.00;60.00;;;;;;5019789;28;20026;-66
2022/10/28 03:35:09;;;;;;;4.70;3.60;;;23.00;59.90;;;;;;5013929;28;20029;-66
2022/10/28 03:37:35;;;;;;;5.35;3.60;;;23.00;60.00;;;;;;5014301;28;20044;-67
2022/10/28 03:40:01;;;;;;;4.90;3.63;;;23.00;60.00;;;;;;5016097;28;20136;-65
2022/10/28 03:42:28;;;;;;;5.25;3.75;;;22.90;59.90;;;;;;5018402;28;20032;-66
2022/10/28 03:44:54;;;;;;;5.13;3.47;;;22.90;59.90;;;;;;5010855;28;20072;-66
2022/10/28 03:47:19;;;;;;;5.13;3.45;;;22.90;59.90;;;;;;5004570;28;20057;-66
2022/10/28 03:49:45;;;;;;;4.95;3.30;;;23.00;60.00;;;;;;5007312;28;20041;-66
2022/10/28 03:52:10;;;;;;;5.10;3.40;;;22.90;60.00;;;;;;5010693;28;20030;-64
2022/10/28 03:54:36;;;;;;;4.72;3.30;;;22.90;59.90;;;;;;5019056;28;20034;-64
2022/10/28 03:57:01;;;;;;;4.82;3.50;;;22.90;59.90;;;;;;5010839;28;20100;-66
2022/10/28 03:59:27;;;;;;;4.50;3.15;;;22.90;59.90;;;;;;5011347;28;20103;-66
2022/10/28 04:01:53;;;;;;;4.22;3.15;;;23.00;60.00;;;;;;5011045;28;20392;-65
2022/10/28 04:04:18;;;;;;;4.35;2.90;;;22.90;59.90;;;;;;5010803;28;20064;-65
2022/10/28 04:06:44;;;;;;;3.90;2.70;;;22.90;59.90;;;;;;5017089;28;20037;-66
2022/10/28 04:09:09;;;;;;;4.25;2.95;;;22.90;59.80;;;;;;5014497;28;20038;-66
2022/10/28 04:11:35;;;;;;;4.38;2.97;;;22.90;59.80;;;;;;5015034;28;20039;-66
2022/10/28 04:14:01;;;;;;;4.53;2.92;;;23.00;59.90;;;;;;5017338;28;20026;-66
2022/10/28 04:16:26;;;;;;;3.90;2.80;;;22.90;59.80;;;;;;5018301;28;20027;-66
2022/10/28 04:18:52;;;;;;;4.88;3.38;;;23.00;60.00;;;;;;5012215;28;20473;-66
2022/10/28 04:21:17;;;;;;;4.10;3.13;;;22.90;59.90;;;;;;5006380;28;20038;-66
2022/10/28 04:23:43;;;;;;;3.75;2.75;;;22.90;59.90;;;;;;5009017;28;20468;-68
2022/10/28 04:26:09;;;;;;;3.83;2.85;;;22.90;59.90;;;;;;5013491;28;20401;-67
2022/10/28 04:28:34;;;;;;;4.57;3.05;;;22.90;59.90;;;;;;5016534;28;20460;-66
2022/10/28 04:31:01;;;;;;;5.40;2.83;;;22.90;59.90;;;;;;5014802;28;20109;-66
2022/10/28 04:33:27;;;;;;;4.07;2.72;;;22.90;59.90;;;;;;5016413;28;20602;-66
2022/10/28 04:35:53;;;;;;;4.45;3.00;;;22.90;59.90;;;;;;5016828;28;20042;-66
2022/10/28 04:38:18;;;;;;;4.45;3.03;;;22.90;59.90;;;;;;5014548;28;20468;-66
2022/10/28 04:40:47;;;;;;;3.45;2.63;;;22.90;59.90;;;;;;5011541;28;20040;-66
2022/10/28 04:43:13;;;;;;;3.78;2.45;;;22.90;59.90;;;;;;5015968;28;20019;-66
2022/10/28 04:45:39;;;;;;;3.47;2.55;;;22.90;59.90;;;;;;5017895;28;20036;-66
2022/10/28 04:48:05;;;;;;;3.30;2.47;;;22.90;59.90;;;;;;5018353;28;20528;-66
2022/10/28 04:50:31;;;;;;;3.10;2.50;;;22.90;59.90;;;;;;5010962;28;20033;-66
2022/10/28 04:52:56;;;;;;;3.83;2.70;;;22.90;59.90;;;;;;5006839;28;20026;-67
2022/10/28 04:55:22;;;;;;;3.20;2.22;;;22.90;60.00;;;;;;5015944;28;20033;-67
2022/10/28 04:57:55;;;;;;;3.83;2.85;;;22.90;60.00;;;;;;5007820;28;20041;-66
2022/10/28 05:00:22;;;;;;;4.13;2.60;;;22.90;60.00;;;;;;5010712;28;20630;-66
2022/10/28 05:02:48;;;;;;;3.28;2.40;;;22.90;60.00;;;;;;5019089;28;20041;-66
2022/10/28 05:05:14;;;;;;;3.33;2.40;;;22.90;60.00;;;;;;5022251;28;20025;-67
2022/10/28 05:07:39;;;;;;;3.33;2.47;;;22.90;60.00;;;;;;5008239;28;20421;-67
2022/10/28 05:10:05;;;;;;;4.70;2.90;;;22.90;60.10;;;;;;5014367;28;20025;-65
2022/10/28 05:12:31;;;;;;;3.70;2.47;;;22.90;60.10;;;;;;5019044;28;20029;-67
2022/10/28 05:14:56;;;;;;;3.53;2.33;;;22.80;60.00;;;;;;5020301;28;20366;-67
2022/10/28 05:17:22;;;;;;;3.72;2.55;;;22.90;60.10;;;;;;5020337;28;20038;-67
2022/10/28 05:19:48;;;;;;;3.40;2.40;;;22.90;60.10;;;;;;5016503;28;20041;-67
2022/10/28 05:22:13;;;;;;;3.75;2.33;;;22.90;60.00;;;;;;5017536;28;20029;-66
2022/10/28 05:24:39;;;;;;;3.03;2.17;;;22.90;60.10;;;;;;5024487;28;20029;-66
2022/10/28 05:27:04;;;;;;;3.28;2.22;;;23.00;60.30;;;;;;5015676;28;20147;-66
2022/10/28 05:29:30;;;;;;;4.13;2.42;;;23.00;60.30;;;;;;5011859;28;20029;-65
2022/10/28 05:31:56;;;;;;;3.65;2.22;;;23.00;60.20;;;;;;5008066;28;20183;-67
2022/10/28 05:34:21;;;;;;;3.80;2.42;;;23.00;60.20;;;;;;5006168;28;20025;-66
2022/10/28 05:36:49;;;;;;;3.88;2.78;;;23.10;60.20;;;;;;5015098;28;20115;-67
2022/10/28 05:39:14;;;;;;;4.53;2.70;;;23.10;60.00;;;;;;5014595;28;20037;-66
2022/10/28 05:41:40;;;;;;;3.65;2.83;;;23.10;60.00;;;;;;5014241;28;20022;-67
2022/10/28 05:44:05;;;;;;;4.63;3.10;;;23.10;59.80;;;;;;5011101;28;20021;-67
2022/10/28 05:46:31;;;;;;;3.83;2.60;;;23.20;59.80;;;;;;5010302;28;20511;-67
2022/10/28 05:48:57;;;;;;;4.93;3.28;;;23.20;59.70;;;;;;5014308;28;20037;-66
2022/10/28 05:51:22;;;;;;;4.22;2.90;;;23.20;59.50;;;;;;5024356;28;20148;-66
2022/10/28 05:53:49;;;;;;;3.78;2.80;;;23.30;59.60;;;;;;5021292;28;20034;-66
2022/10/28 05:56:18;;;;;;;4.53;3.08;;;23.30;59.50;;;;;;5018554;28;20042;-67
2022/10/28 05:58:44;;;;;;;4.30;3.13;;;23.30;59.30;;;;;;5015442;28;20037;-66
2022/10/28 06:01:09;;;;;;;5.25;3.03;;;23.40;59.20;;;;;;5018016;28;20092;-66
2022/10/28 06:03:35;;;;;;;3.97;2.90;;;23.40;59.20;;;;;;5015498;28;20080;-66
2022/10/28 06:06:00;;;;;;;4.32;2.90;;;23.40;59.10;;;;;;5017055;28;20029;-66
2022/10/28 06:08:26;;;;;;;4.70;3.10;;;23.40;59.00;;;;;;5014302;28;20034;-67
2022/10/28 06:10:53;;;;;;;4.35;3.40;;;23.50;59.00;;;;;;5014059;28;20072;-66
2022/10/28 06:13:19;;;;;;;4.43;3.10;;;23.50;58.90;;;;;;5016200;28;20108;-67
2022/10/28 06:15:56;;;;;;;4.53;3.00;;;23.50;58.70;;;;;;5017413;28;20034;-67
2022/10/28 06:18:22;;;;;;;4.32;2.92;;;23.60;59.20;;;;;;5015618;28;20475;-66
2022/10/28 06:20:56;;;;;;;5.05;3.50;;;23.60;58.60;;;;;;5016570;28;20025;-68
2022/10/28 06:23:23;;;;;;;3.95;3.08;;;23.60;58.50;;;;;;5007775;28;20386;-67
2022/10/28 06:25:48;;;;;;;4.43;3.22;;;23.60;58.40;;;;;;5015719;28;20543;-66
2022/10/28 06:28:14;;;;;;;4.40;3.20;;;23.70;58.30;;;;;;5019579;28;20022;-66
2022/10/28 06:30:40;;;;;;;4.75;3.22;;;23.70;58.30;;;;;;5017472;28;20084;-67
2022/10/28 06:33:06;;;;;;;5.07;3.47;;;23.70;58.30;;;;;;5014561;28;20022;-66
2022/10/28 06:35:31;;;;;;;4.05;3.00;;;23.70;58.20;;;;;;5018318;28;20488;-67
2022/10/28 06:37:57;;;;;;;4.47;3.20;;;23.70;58.10;;;;;;5019708;28;20037;-67
2022/10/28 06:40:24;;;;;;;4.10;3.08;;;23.80;58.10;;;;;;5016863;28;20507;-66
2022/10/28 06:43:12;;;;;;;4.30;2.78;;;23.80;58.00;;;;;;5017378;28;20502;-67
2022/10/28 06:45:38;;;;;;;4.82;3.10;;;23.80;57.90;;;;;;5019011;28;20091;-67
2022/10/28 06:48:04;;;;;;;4.40;3.10;;;23.80;57.80;;;;;;5018995;28;20109;-67
2022/10/28 06:50:31;;;;;;;4.80;2.92;;;23.90;57.80;;;;;;5018699;28;20724;-67
2022/10/28 06:52:57;;;;;;;4.80;3.10;;;23.90;57.70;;;;;;5015423;28;20057;-66
2022/10/28 06:55:24;;;;;;;4.32;3.17;;;23.90;57.70;;;;;;5019215;28;20095;-66
2022/10/28 06:57:50;;;;;;;5.55;3.30;;;23.90;57.60;;;;;;5011771;28;20593;-66
2022/10/28 07:00:16;;;;;;;4.15;3.10;;;23.90;57.60;;;;;;5013754;28;20116;-66
2022/10/28 07:02:42;;;;;;;3.63;2.63;;;24.00;57.50;;;;;;5018311;28;20026;-67
2022/10/28 07:05:08;;;;;;;4.80;2.80;;;23.90;57.50;;;;;;5010375;28;20471;-66
2022/10/28 07:07:36;;;;;;;4.07;2.85;;;24.00;57.60;;;;;;5023317;28;20017;-67
2022/10/28 07:10:03;;;;;;;4.45;2.90;;;24.00;57.50;;;;;;5037959;28;20476;-67
2022/10/28 07:12:28;;;;;;;5.15;2.80;;;24.00;57.30;;;;;;5016512;28;20029;-66
2022/10/28 07:14:54;;;;;;;4.55;2.88;;;24.00;57.30;;;;;;5007956;28;20073;-66
2022/10/28 07:17:20;;;;;;;4.68;3.15;;;24.10;57.30;;;;;;5024320;28;20047;-66
2022/10/28 07:19:45;;;;;;;4.40;3.13;;;24.10;57.20;;;;;;5019608;28;20041;-67
2022/10/28 07:22:11;;;;;;;3.80;2.78;;;24.10;57.10;;;;;;5015825;28;20046;-67
2022/10/28 07:24:36;;;;;;;4.22;2.80;;;24.10;57.10;;;;;;5011791;28;20535;-66
2022/10/28 07:27:02;;;;;;;4.18;3.05;;;24.10;57.10;;;;;;5003974;28;20045;-65
2022/10/28 07:29:28;;;;;;;3.97;2.80;;;24.10;57.10;;;;;;5010109;28;20041;-67
2022/10/28 07:31:54;;;;;;;4.32;3.10;;;24.10;57.00;;;;;;5012186;28;20401;-65
2022/10/28 07:34:20;;;;;;;4.53;2.85;;;24.10;56.90;;;;;;5017577;28;20085;-66
2022/10/28 07:36:52;;;;;;;3.30;2.42;;;24.20;56.90;;;;;;5021704;28;20095;-65
2022/10/28 07:39:18;;;;;;;4.35;2.92;;;24.20;56.80;;;;;;5013982;28;20492;-65
2022/10/28 07:41:43;;;;;;;3.97;2.80;;;24.20;56.80;;;;;;5014229;28;20060;-65
2022/10/28 07:44:09;;;;;;;3.75;2.70;;;24.20;56.70;;;;;;5022026;28;20116;-65
2022/10/28 07:46:34;;;;;;;4.97;3.00;;;24.20;56.70;;;;;;5025130;28;20061;-65
2022/10/28 07:49:00;;;;;;;4.90;2.70;;;24.20;56.60;;;;;;5021032;28;20125;-65
2022/10/28 07:51:26;;;;;;;3.70;2.40;;;24.20;56.60;;;;;;5005501;28;20540;-66
2022/10/28 07:53:51;;;;;;;4.20;2.88;;;24.30;56.60;;;;;;5014391;28;20087;-66
2022/10/28 07:56:17;;;;;;;3.08;2.35;;;24.20;56.50;;;;;;5018917;28;20050;-66
2022/10/28 07:58:44;;;;;;;3.67;2.85;;;24.20;56.50;;;;;;5016942;28;20107;-65
2022/10/28 08:01:12;;;;;;;4.60;3.00;;;24.30;56.50;;;;;;5013335;28;20037;-65
2022/10/28 08:03:37;;;;;;;3.58;2.30;;;24.30;57.00;;;;;;5007827;28;20029;-65
2022/10/28 08:06:15;;;;;;;3.17;2.20;;;24.30;56.40;;;;;;5003788;28;20493;-66
2022/10/28 08:08:40;;;;;;;3.75;2.60;;;24.30;56.90;;;;;;5008856;28;20497;-65
2022/10/28 08:11:11;;;;;;;3.97;2.78;;;24.30;56.40;;;;;;5016666;28;20040;-66
2022/10/28 08:13:36;;;;;;;3.83;2.70;;;24.30;56.30;;;;;;5014983;28;20101;-66
2022/10/28 08:16:02;;;;;;;4.03;2.42;;;24.30;56.20;;;;;;5011729;28;20117;-66
2022/10/28 08:18:27;;;;;;;5.40;2.53;;;24.30;56.20;;;;;;5016884;28;20022;-66
2022/10/28 08:20:53;;;;;;;4.03;2.72;;;24.30;56.30;;;;;;5016037;28;20022;-66
2022/10/28 08:23:19;;;;;;;3.30;2.70;;;24.30;56.20;;;;;;5022102;28;20030;-66
2022/10/28 08:25:48;;;;;;;3.15;2.33;;;24.30;56.20;;;;;;5016119;28;20073;-65
2022/10/28 08:28:14;;;;;;;4.50;2.53;;;24.30;56.20;;;;;;5010546;28;20014;-66
2022/10/28 08:30:40;;;;;;;4.00;2.60;;;24.30;56.20;;;;;;5013686;28;20048;-66
2022/10/28 08:33:05;;;;;;;4.10;2.50;;;24.30;56.20;;;;;;5015946;28;20026;-65
2022/10/28 08:35:31;;;;;;;3.50;2.50;;;24.30;56.30;;;;;;5015102;28;20049;-67
2022/10/28 08:37:56;;;;;;;4.10;3.00;;;24.30;56.30;;;;;;5010695;28;20026;-65
2022/10/28 08:40:37;;;;;;;2.97;2.42;;;24.30;56.30;;;;;;5008359;28;20491;-66
2022/10/28 08:43:17;;;;;;;2.80;2.20;;;24.30;56.30;;;;;;5006176;28;20029;-65
2022/10/28 08:45:47;;;;;;;3.45;2.42;;;24.30;56.30;;;;;;5013318;28;20381;-66
2022/10/28 08:48:18;;;;;;;3.10;2.47;;;24.30;56.30;;;;;;5013219;28;20125;-65
2022/10/28 08:50:56;;;;;;;4.57;2.60;;;24.30;56.30;;;;;;5018503;28;20388;-67
2022/10/28 08:53:43;;;;;;;3.30;2.50;;;24.30;56.40;;;;;;5016606;28;20444;-66
2022/10/28 08:56:26;;;;;;;3.28;2.20;;;24.30;56.90;;;;;;5014135;28;20087;-66
2022/10/28 08:58:57;;;;;;;3.20;2.30;;;24.40;56.50;;;;;;5015310;28;20034;-66
2022/10/28 09:01:47;;;;;;;3.22;2.35;;;24.40;56.50;;;;;;5016226;28;20061;-66
2022/10/28 09:04:20;;;;;;;;;;;24.40;56.50;;;;;;5013202;28;20481;-68
2022/10/28 09:06:45;;;;;;;3.42;2.35;;;24.40;56.50;;;;;;5010148;28;19939;-65
2022/10/28 09:09:18;;;;;;;3.20;2.20;;;24.40;56.50;;;;;;5011053;28;20104;-67
2022/10/28 09:11:47;;;;;;;2.60;2.00;;;24.40;56.50;;;;;;5016596;28;20030;-66
2022/10/28 09:14:39;;;;;;;3.17;2.28;;;24.40;56.50;;;;;;5006964;28;20030;-68
2022/10/28 09:17:19;;;;;;;3.80;2.65;;;24.40;56.70;;;;;;4994825;28;20448;-66
2022/10/28 09:19:50;;;;;;;3.20;2.22;;;24.40;56.50;;;;;;5011912;28;20034;-67
2022/10/28 09:22:32;;;;;;;3.47;2.40;;;24.40;56.50;;;;;;5016405;28;20026;-66
2022/10/28 09:25:12;;;;;;;3.58;2.50;;;24.40;56.60;;;;;;5009248;28;20512;-67
2022/10/28 09:28:02;;;;;;;3.20;2.30;;;24.40;56.50;;;;;;5013907;28;20376;-68
2022/10/28 09:30:39;;;;;;;2.83;2.08;;;24.40;56.50;;;;;;5018496;28;20022;-68
2022/10/28 09:33:23;;;;;;;2.85;2.10;;;24.50;56.60;;;;;;5012632;28;20146;-67
2022/10/28 09:35:50;;;;;;;4.15;2.50;;;24.40;56.60;;;;;;5012987;28;20071;-67
2022/10/28 09:38:28;;;;;;;3.00;2.05;;;24.40;56.60;;;;;;5015827;28;20156;-67
2022/10/28 09:41:21;;;;;;;3.58;2.30;;;24.40;56.70;;;;;;5014869;28;20478;-67
2022/10/28 09:43:52;;;;;;;3.22;2.30;;;24.40;56.70;;;;;;5012650;28;20029;-66
2022/10/28 09:46:18;;;;;;;2.90;2.40;;;24.40;56.70;;;;;;5012425;28;20030;-67
2022/10/28 09:48:53;;;;;;;3.30;2.38;;;24.40;56.70;;;;;;5019797;28;20056;-66
2022/10/28 09:51:19;;;;;;;2.85;2.08;;;24.40;56.70;;;;;;5010131;28;20022;-67
2022/10/28 09:53:56;;;;;;;3.45;2.28;;;24.40;56.70;;;;;;5013539;28;20048;-66
2022/10/28 09:56:22;;;;;;;3.63;2.10;;;24.50;56.70;;;;;;5016486;28;20097;-66
2022/10/28 09:58:48;;;;;;;3.17;2.10;;;24.50;56.60;;;;;;5015160;28;20512;-67
2022/10/28 10:01:16;;;;;;;4.07;2.10;;;24.50;56.60;;;;;;5012459;28;20120;-67
2022/10/28 10:03:44;;;;;;;3.17;2.10;;;24.50;56.60;;;;;;5014129;28;20515;-66
2022/10/28 10:06:17;;;;;;;3.85;2.20;;;24.50;56.60;;;;;;5021008;28;20087;-67
2022/10/28 10:08:44;;;;;;;3.50;2.30;;;24.50;56.60;;;;;;5020555;28;20559;-66
2022/10/28 10:11:30;;;;;;;3.20;2.20;;;24.50;56.60;;;;;;5016840;28;20025;-66
2022/10/28 10:14:01;;;;;;;3.20;2.28;;;24.50;56.60;;;;;;5015697;28;20036;-66
2022/10/28 10:16:39;;;;;;;3.10;2.10;;;24.50;56.60;;;;;;5015914;28;20112;-67
2022/10/28 10:19:08;;;;;;;3.17;2.40;;;24.50;56.60;;;;;;5012554;28;20558;-66
2022/10/28 10:21:48;;;;;;;3.25;2.13;;;24.50;56.50;;;;;;5018012;28;20052;-65
2022/10/28 10:24:34;;;;;;;3.20;2.15;;;24.60;56.60;;;;;;5014793;28;20026;-65
2022/10/28 10:27:09;;;;;;;3.47;2.25;;;24.50;56.50;;;;;;5009800;28;20030;-66
2022/10/28 10:29:35;;;;;;;3.40;2.30;;;24.50;56.50;;;;;;5011489;28;20076;-67
2022/10/28 10:32:23;;;;;;;2.70;2.00;;;24.60;56.60;;;;;;5017591;28;20066;-67
2022/10/28 10:34:58;;;;;;;2.63;1.90;;;24.50;56.50;;;;;;5016921;28;20141;-67
2022/10/28 10:37:23;;;;;;;3.38;1.92;;;24.60;56.60;;;;;;5017904;28;20083;-67
2022/10/28 10:40:16;;;;;;;4.30;2.22;;;24.60;56.60;;;;;;5014050;28;20026;-66
2022/10/28 10:42:42;;;;;;;3.33;2.30;;;24.60;56.70;;;;;;5013114;28;20022;-65
2022/10/28 10:45:21;;;;;;;3.33;2.17;;;24.60;56.70;;;;;;5016461;28;20044;-66
2022/10/28 10:47:47;;;;;;;;;;;24.60;56.70;;;;;;5018533;28;20109;-65
2022/10/28 10:50:27;;;;;;;3.30;2.17;;;24.60;56.70;;;;;;5017077;28;20051;-65
2022/10/28 10:52:55;;;;;;;3.10;2.20;;;24.60;56.60;;;;;;5014618;28;20048;-66
2022/10/28 10:55:33;;;;;;;3.10;2.20;;;24.60;56.70;;;;;;5012635;28;20029;-65
2022/10/28 10:57:59;;;;;;;3.28;2.10;;;24.60;56.70;;;;;;5019160;28;20052;-65
2022/10/28 11:00:34;;;;;;;3.05;2.00;;;24.70;56.70;;;;;;5015967;28;20515;-65
2022/10/28 11:03:02;;;;;;;3.03;1.98;;;24.70;56.70;;;;;;5013468;28;20034;-64
2022/10/28 11:05:28;;;;;;;3.58;2.00;;;24.60;56.70;;;;;;5014841;28;20036;-64
2022/10/28 11:07:53;;;;;;;3.75;1.95;;;24.60;56.70;;;;;;5017328;28;20392;-64
2022/10/28 11:10:25;;;;;;;3.97;2.33;;;24.70;56.80;;;;;;5012509;28;20026;-65
2022/10/28 11:12:57;;;;;;;3.08;2.00;;;24.70;56.80;;;;;;5019378;28;20034;-65
2022/10/28 11:15:28;;;;;;;3.25;2.13;;;24.70;56.80;;;;;;5014571;28;20057;-65
2022/10/28 11:18:19;;;;;;;2.88;2.13;;;24.70;56.80;;;;;;5011551;28;20061;-64
2022/10/28 11:20:56;;;;;;;3.35;2.20;;;24.70;56.80;;;;;;5012836;28;20477;-65
2022/10/28 11:23:37;;;;;;;4.45;1.85;;;24.70;56.80;;;;;;5018876;28;20452;-66
2022/10/28 11:26:07;;;;;;;3.05;1.92;;;24.80;56.80;;;;;;5015439;28;20038;-68
2022/10/28 11:28:52;;;;;;;2.95;1.92;;;24.70;56.80;;;;;;5007228;28;20026;-65
2022/10/28 11:31:23;;;;;;;2.60;1.77;;;24.70;56.80;;;;;;5013834;28;20082;-65
2022/10/28 11:34:04;;;;;;;3.38;1.98;;;24.80;56.90;;;;;;5018054;28;20155;-65
2022/10/28 11:36:51;;;;;;;3.28;2.05;;;24.80;56.90;;;;;;5015205;28;20018;-66
2022/10/28 11:39:35;;;;;;;3.40;1.98;;;24.80;56.80;;;;;;5019472;28;20026;-65
2022/10/28 11:42:19;;;;;;;3.00;2.25;;;24.80;56.70;;;;;;5019604;28;20500;-65
2022/10/28 11:45:00;;;;;;;3.03;1.90;;;24.80;56.70;;;;;;5011574;28;20104;-66
2022/10/28 11:47:32;;;;;;;2.65;1.80;;;24.80;56.60;;;;;;5008392;28;20022;-65
2022/10/28 11:50:29;;;;;;;4.47;1.80;;;24.80;56.70;;;;;;5018372;28;20504;-66
2022/10/28 11:53:13;;;;;;;2.80;1.80;;;24.80;56.60;;;;;;5014151;28;20026;-65
2022/10/28 11:56:06;;;;;;;2.70;1.92;;;24.80;56.70;;;;;;5015528;28;20048;-65
2022/10/28 11:58:54;;;;;;;2.63;1.80;;;24.80;56.70;;;;;;5018138;28;20033;-66
2022/10/28 12:01:47;;;;;;;2.22;1.63;;;24.80;56.80;;;;;;5009575;28;20065;-66
2022/10/28 12:04:48;;;;;;;2.33;1.60;;;24.80;56.90;;;;;;5011172;28;20026;-66
2022/10/28 12:07:46;;;;;;;2.88;1.70;;;24.90;57.40;;;;;;4972107;28;20518;-65
2022/10/28 12:10:32;;;;;;;2.80;1.95;;;24.80;57.20;;;;;;5018641;28;20100;-67
2022/10/28 12:13:25;;;;;;;2.15;1.48;;;24.90;57.10;;;;;;5018367;28;20556;-67
2022/10/28 12:15:58;;;;;;;2.40;1.60;;;24.90;57.40;;;;;;5017110;28;20030;-66
2022/10/28 12:18:56;;;;;;;3.83;1.80;;;24.90;57.20;;;;;;5009629;28;20873;-66
2022/10/28 12:21:42;;;;;;;3.90;1.80;;;24.90;57.10;;;;;;5006806;28;20517;-66
2022/10/28 12:24:16;;;;;;;3.25;1.75;;;24.90;57.00;;;;;;5020357;28;20089;-66
2022/10/28 12:26:50;;;;;;;2.72;1.70;;;25.00;56.80;;;;;;5003276;28;20101;-67
2022/10/28 12:29:18;;;;;;;3.65;1.80;;;25.00;56.70;;;;;;5031776;28;20025;-66
2022/10/28 12:31:52;;;;;;;2.78;1.85;;;25.00;55.80;;;;;;5019115;28;20451;-65
2022/10/28 12:34:26;;;;;;;5.03;1.70;;;25.00;54.70;;;;;;5033133;28;20045;-66
2022/10/28 12:37:03;;;;;;;2.53;1.45;;;25.00;54.60;;;;;;5019240;28;20014;-66
2022/10/28 12:40:06;;;;;;;2.90;1.60;;;25.00;54.80;;;;;;5012154;28;20018;-66
2022/10/28 12:42:38;;;;;;;2.50;1.45;;;25.00;54.70;;;;;;5010246;28;20030;-65
2022/10/28 12:45:10;;;;;;;4.78;1.95;;;25.00;54.00;;;;;;5007671;28;20064;-65
2022/10/28 12:47:48;;;;;;;3.30;1.50;;;24.90;53.20;;;;;;5016353;28;20021;-66
2022/10/28 12:50:51;;;;;;;3.73;1.83;;;25.00;53.40;;;;;;5013991;28;20036;-67
2022/10/28 12:53:40;;;;;;;4.35;1.70;;;24.90;53.00;;;;;;4992213;28;20445;-66
2022/10/28 12:56:31;;;;;;;4.82;1.60;;;25.00;53.20;;;;;;5009405;28;20457;-66
2022/10/28 12:59:12;;;;;;;2.78;1.40;;;24.90;53.20;;;;;;5007655;28;20026;-66
2022/10/28 13:01:38;;;;;;;2.97;1.50;;;25.00;53.30;;;;;;5007425;28;20747;-66
2022/10/28 13:04:04;;;;;;;2.88;1.55;;;24.90;53.70;;;;;;5012064;28;20022;-66
2022/10/28 13:06:49;;;;;;;3.28;1.63;;;24.90;53.00;;;;;;5016756;28;20112;-67
2022/10/28 13:09:33;;;;;;;2.60;1.52;;;24.90;53.20;;;;;;5018381;28;20367;-66
2022/10/28 13:12:14;;;;;;;5.93;1.75;;;24.80;53.20;;;;;;5019077;28;20504;-66